createdAt,value
2023-05-19T00:02:15.612Z,12.03
2023-05-19T00:04:47.458Z,11.97
2023-05-19T00:07:20.477Z,11.88
2023-05-19T00:09:51.836Z,11.81
2023-05-19T00:12:20.127Z,11.82
2023-05-19T00:14:53.264Z,11.81
2023-05-19T00:17:22.653Z,11.79
2023-05-19T00:19:52.489Z,11.74
2023-05-19T00:22:21.031Z,11.72
2023-05-19T00:24:51.617Z,11.69
2023-05-19T00:27:28.056Z,11.68
2023-05-19T00:29:57.543Z,11.70
2023-05-19T00:32:26.415Z,11.68
2023-05-19T00:34:57.080Z,11.64
2023-05-19T00:37:25.925Z,11.66
2023-05-19T00:39:54.074Z,11.62
2023-05-19T00:42:22.747Z,11.58
2023-05-19T00:44:52.152Z,11.56
2023-05-19T00:47:20.629Z,11.56
2023-05-19T00:49:49.161Z,11.54
2023-05-19T00:52:18.708Z,11.48
2023-05-19T00:54:51.374Z,11.39
2023-05-19T00:57:21.378Z,11.31
2023-05-19T00:59:52.855Z,11.29
2023-05-19T01:02:21.662Z,11.24
2023-05-19T01:04:51.806Z,11.22
2023-05-19T01:07:23.316Z,11.13
2023-05-19T01:09:52.005Z,11.13
2023-05-19T01:12:20.283Z,11.17
2023-05-19T01:14:48.897Z,11.14
2023-05-19T01:17:25.877Z,11.12
2023-05-19T01:20:05.129Z,11.10
2023-05-19T01:23:01.986Z,11.08
2023-05-19T01:25:46.144Z,11.02
2023-05-19T01:28:51.621Z,10.90
2023-05-19T01:31:29.895Z,10.93
2023-05-19T01:33:59.584Z,10.93
2023-05-19T01:36:29.121Z,10.91
2023-05-19T01:39:00.654Z,10.88
2023-05-19T01:41:32.587Z,10.83
2023-05-19T01:44:02.052Z,10.86
2023-05-19T01:46:32.272Z,10.79
2023-05-19T01:49:01.666Z,10.82
2023-05-19T01:51:29.973Z,10.81
2023-05-19T01:53:58.843Z,10.81
2023-05-19T01:56:40.025Z,10.77
2023-05-19T01:59:17.701Z,10.78
2023-05-19T02:01:54.271Z,10.76
2023-05-19T02:04:39.223Z,10.74
2023-05-19T02:07:17.136Z,10.70
2023-05-19T02:09:54.084Z,10.72
2023-05-19T02:12:29.935Z,10.72
2023-05-19T02:15:05.276Z,10.63
2023-05-19T02:17:37.684Z,10.62
2023-05-19T02:20:07.354Z,10.61
2023-05-19T02:22:36.164Z,10.65
2023-05-19T02:25:08.523Z,10.63
2023-05-19T02:27:44.458Z,10.59
2023-05-19T02:30:16.753Z,10.59
2023-05-19T02:32:48.929Z,10.59
2023-05-19T02:35:17.414Z,10.59
2023-05-19T02:37:46.243Z,10.60
2023-05-19T02:40:16.487Z,10.57
2023-05-19T02:42:45.500Z,10.56
2023-05-19T02:45:15.302Z,10.55
2023-05-19T02:47:43.799Z,10.52
2023-05-19T02:50:13.232Z,10.48
2023-05-19T02:52:42.195Z,10.49
2023-05-19T02:55:16.974Z,10.44
2023-05-19T02:57:45.001Z,10.42
2023-05-19T03:00:15.096Z,10.39
2023-05-19T03:02:45.080Z,10.37
2023-05-19T03:05:18.478Z,10.38
2023-05-19T03:07:47.520Z,10.36
2023-05-19T03:10:15.574Z,10.35
2023-05-19T03:12:43.594Z,10.30
2023-05-19T03:15:15.056Z,10.31
2023-05-19T03:17:44.536Z,10.32
2023-05-19T03:20:15.845Z,10.25
2023-05-19T03:22:46.459Z,10.25
2023-05-19T03:25:14.790Z,10.27
2023-05-19T03:27:44.719Z,10.24
2023-05-19T03:30:15.331Z,10.29
2023-05-19T03:33:03.071Z,10.26
2023-05-19T03:35:34.124Z,10.20
2023-05-19T03:38:03.809Z,10.20
2023-05-19T03:40:32.129Z,10.21
2023-05-19T03:43:07.933Z,10.17
2023-05-19T03:45:43.271Z,10.13
2023-05-19T03:48:31.536Z,10.06
2023-05-19T03:51:18.234Z,10.06
2023-05-19T03:53:54.404Z,9.97
2023-05-19T03:56:27.485Z,9.97
2023-05-19T03:58:58.304Z,9.96
2023-05-19T04:01:26.458Z,9.91
2023-05-19T04:03:55.097Z,9.93
2023-05-19T04:06:24.738Z,9.98
2023-05-19T04:09:03.526Z,9.96
2023-05-19T04:11:31.727Z,9.97
2023-05-19T04:14:00.131Z,9.98
2023-05-19T04:16:31.291Z,9.97
2023-05-19T04:19:02.414Z,9.96
2023-05-19T04:21:30.642Z,10.00
2023-05-19T04:24:00.364Z,10.02
2023-05-19T04:26:31.250Z,10.04
2023-05-19T04:28:59.233Z,9.99
2023-05-19T04:31:28.709Z,10.01
2023-05-19T04:34:02.109Z,10.07
2023-05-19T04:36:34.141Z,10.10
2023-05-19T04:39:10.080Z,10.13
2023-05-19T04:41:44.763Z,10.17
2023-05-19T04:44:18.471Z,10.19
2023-05-19T04:46:50.050Z,10.19
2023-05-19T04:49:19.983Z,10.25
2023-05-19T04:51:50.841Z,10.25
2023-05-19T04:54:26.808Z,10.29
2023-05-19T04:56:55.282Z,10.33
2023-05-19T04:59:23.494Z,10.35
2023-05-19T05:01:52.794Z,10.37
2023-05-19T05:04:21.764Z,10.44
2023-05-19T05:06:50.481Z,10.49
2023-05-19T05:09:20.056Z,10.52
2023-05-19T05:11:53.553Z,10.54
2023-05-19T05:14:22.643Z,10.61
2023-05-19T05:16:52.848Z,10.67
2023-05-19T05:19:25.752Z,10.77
2023-05-19T05:21:56.002Z,10.77
2023-05-19T05:24:25.371Z,10.77
2023-05-19T05:26:59.218Z,10.76
2023-05-19T05:29:28.252Z,10.86
2023-05-19T05:31:56.893Z,10.87
2023-05-19T05:34:26.485Z,10.93
2023-05-19T05:36:54.729Z,10.93
2023-05-19T05:39:23.674Z,10.98
2023-05-19T05:41:51.951Z,11.00
2023-05-19T05:44:22.959Z,11.05
2023-05-19T05:46:52.676Z,11.11
2023-05-19T05:49:21.772Z,11.12
2023-05-19T05:52:04.930Z,11.15
2023-05-19T05:54:37.954Z,11.20
2023-05-19T05:57:10.125Z,11.22
2023-05-19T05:59:45.461Z,11.30
2023-05-19T06:02:14.571Z,11.30
2023-05-19T06:04:45.101Z,11.36
2023-05-19T06:07:13.019Z,11.43
2023-05-19T06:09:41.156Z,11.53
2023-05-19T06:12:12.033Z,11.57
2023-05-19T06:14:47.624Z,11.67
2023-05-19T06:17:40.941Z,11.73
2023-05-19T06:20:14.380Z,11.82
2023-05-19T06:22:42.349Z,11.92
2023-05-19T06:25:11.708Z,12.01
2023-05-19T06:27:40.082Z,12.09
2023-05-19T06:30:11.538Z,12.17
2023-05-19T06:32:51.746Z,12.24
2023-05-19T06:35:22.884Z,12.30
2023-05-19T06:37:55.748Z,12.37
2023-05-19T06:40:24.863Z,12.49
2023-05-19T06:42:53.515Z,12.55
2023-05-19T06:45:36.987Z,12.66
2023-05-19T06:48:08.162Z,12.76
2023-05-19T06:50:37.058Z,12.86
2023-05-19T06:53:06.541Z,12.97
2023-05-19T06:55:39.220Z,13.07
2023-05-19T06:58:18.065Z,13.18
2023-05-19T07:00:49.023Z,13.32
2023-05-19T07:03:20.064Z,13.40
2023-05-19T07:05:53.214Z,13.53
2023-05-19T07:08:21.915Z,13.68
2023-05-19T07:10:50.839Z,13.78
2023-05-19T07:13:19.392Z,13.89
2023-05-19T07:15:49.964Z,13.99
2023-05-19T07:18:21.547Z,14.08
2023-05-19T07:20:49.895Z,14.17
2023-05-19T07:23:17.989Z,14.22
2023-05-19T07:25:48.042Z,14.26
2023-05-19T07:28:16.727Z,14.30
2023-05-19T07:30:47.452Z,14.39
2023-05-19T07:33:19.757Z,14.50
2023-05-19T07:35:51.893Z,14.58
2023-05-19T07:38:20.906Z,14.72
2023-05-19T07:40:51.952Z,14.83
2023-05-19T07:43:20.862Z,14.94
2023-05-19T07:45:49.047Z,15.06
2023-05-19T07:48:18.786Z,15.21
2023-05-19T07:50:48.320Z,15.40
2023-05-19T07:53:16.828Z,15.55
2023-05-19T07:55:47.148Z,15.65
2023-05-19T07:58:15.927Z,15.77
2023-05-19T08:00:45.921Z,15.82
2023-05-19T08:03:17.758Z,15.91
2023-05-19T08:05:46.347Z,15.94
2023-05-19T08:08:19.670Z,15.93
2023-05-19T08:10:48.273Z,15.95
2023-05-19T08:13:16.677Z,16.01
2023-05-19T08:15:46.227Z,16.08
2023-05-19T08:18:20.717Z,16.12
2023-05-19T08:20:52.766Z,16.10
2023-05-19T08:23:23.166Z,16.16
2023-05-19T08:25:52.332Z,16.22
2023-05-19T08:28:22.566Z,16.30
2023-05-19T08:30:52.479Z,16.39
2023-05-19T08:33:23.066Z,16.46
2023-05-19T08:35:51.088Z,16.50
2023-05-19T08:38:22.888Z,16.54
2023-05-19T08:40:53.744Z,16.57
2023-05-19T08:43:27.361Z,16.60
2023-05-19T08:45:56.583Z,16.60
2023-05-19T08:48:25.598Z,16.62
2023-05-19T08:51:09.381Z,16.66
2023-05-19T08:53:43.906Z,16.62
2023-05-19T08:56:17.406Z,16.65
2023-05-19T08:58:51.920Z,16.62
2023-05-19T09:01:21.292Z,16.60
2023-05-19T09:03:51.195Z,16.62
2023-05-19T09:06:23.355Z,16.60
2023-05-19T09:08:57.348Z,16.59
2023-05-19T09:11:26.122Z,16.67
2023-05-19T09:13:56.667Z,16.75
2023-05-19T09:16:30.035Z,16.87
2023-05-19T09:19:02.092Z,16.98
2023-05-19T09:21:32.276Z,17.12
2023-05-19T09:24:06.433Z,17.31
2023-05-19T09:26:40.186Z,17.47
2023-05-19T09:29:14.901Z,17.70
2023-05-19T09:31:51.588Z,17.89
2023-05-19T09:34:25.104Z,18.13
2023-05-19T09:36:59.741Z,18.23
2023-05-19T09:39:34.138Z,18.28
2023-05-19T09:42:09.973Z,18.32
2023-05-19T09:44:38.848Z,18.41
2023-05-19T09:47:11.162Z,18.59
2023-05-19T09:49:48.803Z,18.83
2023-05-19T09:52:19.218Z,19.06
2023-05-19T09:54:51.642Z,19.25
2023-05-19T09:57:26.966Z,19.45
2023-05-19T09:59:58.406Z,19.62
2023-05-19T10:02:31.685Z,19.77
2023-05-19T10:05:05.687Z,19.83
2023-05-19T10:07:34.847Z,19.93
2023-05-19T10:10:12.923Z,19.97
2023-05-19T10:12:43.046Z,19.95
2023-05-19T10:15:14.305Z,19.99
2023-05-19T10:17:46.674Z,20.02
2023-05-19T10:20:17.969Z,19.80
2023-05-19T10:22:48.730Z,19.63
2023-05-19T10:25:19.928Z,19.68
2023-05-19T10:27:56.196Z,19.77
2023-05-19T10:30:29.443Z,19.80
2023-05-19T10:33:02.467Z,19.85
2023-05-19T10:36:01.276Z,19.94
2023-05-19T10:38:37.274Z,20.02
2023-05-19T10:41:13.676Z,20.02
2023-05-19T10:43:56.196Z,20.05
2023-05-19T10:46:28.418Z,20.20
2023-05-19T10:48:56.759Z,20.33
2023-05-19T10:51:31.852Z,20.51
2023-05-19T10:54:02.938Z,20.71
2023-05-19T10:56:36.334Z,20.94
2023-05-19T10:59:05.478Z,21.11
2023-05-19T11:01:35.870Z,21.31
2023-05-19T11:04:09.212Z,21.57
2023-05-19T11:06:38.973Z,21.75
2023-05-19T11:09:17.001Z,21.89
2023-05-19T11:11:50.407Z,22.09
2023-05-19T11:14:21.528Z,22.17
2023-05-19T11:16:50.521Z,22.19
2023-05-19T11:19:21.358Z,22.19
2023-05-19T11:21:52.638Z,22.11
2023-05-19T11:24:39.960Z,21.97
2023-05-19T11:27:31.865Z,22.01
2023-05-19T11:30:02.082Z,22.12
2023-05-19T11:32:33.516Z,22.12
2023-05-19T11:35:02.008Z,21.97
2023-05-19T11:37:33.371Z,22.15
2023-05-19T11:40:04.839Z,22.13
2023-05-19T11:42:37.286Z,22.01
2023-05-19T11:45:10.701Z,22.15
2023-05-19T11:47:56.390Z,22.24
2023-05-19T11:50:30.212Z,22.40
2023-05-19T11:52:58.894Z,22.50
2023-05-19T11:55:30.063Z,22.55
2023-05-19T12:00:37.113Z,22.54
2023-05-19T12:03:05.899Z,22.55
2023-05-19T12:05:42.064Z,22.75
2023-05-19T12:08:11.833Z,22.90
2023-05-19T12:10:41.177Z,22.91
2023-05-19T12:13:13.926Z,22.85
2023-05-19T12:15:42.162Z,22.89
2023-05-19T12:18:11.025Z,22.98
2023-05-19T12:20:39.214Z,23.28
2023-05-19T12:23:07.669Z,23.54
2023-05-19T12:25:36.190Z,23.65
2023-05-19T12:28:07.213Z,23.77
2023-05-19T12:30:37.019Z,23.86
2023-05-19T12:33:05.825Z,23.91
2023-05-19T12:35:34.355Z,23.85
2023-05-19T12:38:05.982Z,23.80
2023-05-19T12:40:36.765Z,23.82
2023-05-19T12:43:06.898Z,23.90
2023-05-19T12:45:38.206Z,23.86
2023-05-19T12:48:15.922Z,23.75
2023-05-19T12:50:45.262Z,23.62
2023-05-19T12:53:13.791Z,23.56
2023-05-19T12:55:43.737Z,23.50
2023-05-19T12:58:12.946Z,23.52
2023-05-19T13:00:47.324Z,23.60
2023-05-19T13:03:17.576Z,23.78
2023-05-19T13:05:47.739Z,23.90
2023-05-19T13:08:18.207Z,23.96
2023-05-19T13:10:50.063Z,24.00
2023-05-19T13:13:20.268Z,23.71
2023-05-19T13:15:49.664Z,23.66
2023-05-19T13:18:18.388Z,23.71
2023-05-19T13:20:51.424Z,24.06
2023-05-19T13:23:19.664Z,24.26
2023-05-19T13:25:47.844Z,24.32
2023-05-19T13:28:19.555Z,24.12
2023-05-19T13:30:49.804Z,23.83
2023-05-19T13:33:19.255Z,23.58
2023-05-19T13:35:51.272Z,23.36
2023-05-19T13:38:21.800Z,23.15
2023-05-19T13:40:50.211Z,23.04
2023-05-19T13:43:18.183Z,22.97
2023-05-19T13:45:46.713Z,23.03
2023-05-19T13:48:16.678Z,23.07
2023-05-19T13:50:46.919Z,23.17
2023-05-19T13:53:15.199Z,23.31
2023-05-19T13:55:43.392Z,23.60
2023-05-19T13:58:12.514Z,23.91
2023-05-19T14:00:40.915Z,24.12
2023-05-19T14:03:09.126Z,24.14
2023-05-19T14:05:39.217Z,24.04
2023-05-19T14:08:07.662Z,23.98
2023-05-19T14:10:35.895Z,23.81
2023-05-19T14:13:29.870Z,23.67
2023-05-19T14:15:59.099Z,23.51
2023-05-19T14:18:28.394Z,23.37
2023-05-19T14:21:00.274Z,23.15
2023-05-19T14:23:30.170Z,22.96
2023-05-19T14:25:58.295Z,22.86
2023-05-19T14:28:26.738Z,22.89
2023-05-19T14:30:54.812Z,22.97
2023-05-19T14:33:23.080Z,23.22
2023-05-19T14:35:51.004Z,23.55
2023-05-19T14:38:20.511Z,23.56
2023-05-19T14:40:50.495Z,23.82
2023-05-19T14:43:18.627Z,24.11
2023-05-19T14:48:15.078Z,24.32
2023-05-19T14:50:43.100Z,23.88
2023-05-19T14:53:11.594Z,23.88
2023-05-19T14:55:42.243Z,23.68
2023-05-19T14:58:27.025Z,23.57
2023-05-19T15:00:58.171Z,23.68
2023-05-19T15:03:28.666Z,23.94
2023-05-19T15:05:58.976Z,24.10
2023-05-19T15:08:27.783Z,24.48
2023-05-19T15:10:57.381Z,24.60
2023-05-19T15:13:27.419Z,24.48
2023-05-19T15:16:15.589Z,24.29
2023-05-19T15:18:46.795Z,24.04
2023-05-19T15:21:17.060Z,23.91
2023-05-19T15:23:45.111Z,23.75
2023-05-19T15:26:14.592Z,23.81
2023-05-19T15:28:45.304Z,23.84
2023-05-19T15:31:13.620Z,23.76
2023-05-19T15:33:42.045Z,24.01
2023-05-19T15:36:16.231Z,24.33
2023-05-19T15:38:44.513Z,24.71
2023-05-19T15:41:15.205Z,25.07
2023-05-19T15:43:46.397Z,25.54
2023-05-19T15:46:16.069Z,25.52
2023-05-19T15:48:45.425Z,25.30
2023-05-19T15:51:13.486Z,25.37
2023-05-19T15:53:43.952Z,25.49
2023-05-19T15:56:13.368Z,25.92
2023-05-19T15:58:45.302Z,26.60
2023-05-19T16:01:16.328Z,27.36
2023-05-19T16:03:45.361Z,28.24
2023-05-19T16:06:13.626Z,29.14
2023-05-19T16:08:44.537Z,30.13
2023-05-19T16:11:12.420Z,31.28
2023-05-19T16:13:40.766Z,32.14
2023-05-19T16:16:11.600Z,32.17
2023-05-19T16:18:39.954Z,31.77
2023-05-19T16:21:10.486Z,30.76
2023-05-19T16:23:41.698Z,29.45
2023-05-19T16:26:09.570Z,28.74
2023-05-19T16:28:38.143Z,28.33
2023-05-19T16:31:07.068Z,28.11
2023-05-19T16:33:36.438Z,28.50
2023-05-19T16:36:07.427Z,29.08
2023-05-19T16:38:40.475Z,29.52
2023-05-19T16:41:12.911Z,29.86
2023-05-19T16:43:41.126Z,29.97
2023-05-19T16:46:12.000Z,30.10
2023-05-19T16:48:41.989Z,30.02
2023-05-19T16:51:12.504Z,29.68
2023-05-19T16:53:41.432Z,29.32
2023-05-19T16:56:09.845Z,29.32
2023-05-19T16:58:38.048Z,29.65
2023-05-19T17:01:07.463Z,29.78
2023-05-19T17:03:37.996Z,30.05
2023-05-19T17:06:07.759Z,30.05
2023-05-19T17:08:36.381Z,29.81
2023-05-19T17:11:06.365Z,28.85
2023-05-19T17:13:36.489Z,28.43
2023-05-19T17:16:04.892Z,28.07
2023-05-19T17:18:33.031Z,27.92
2023-05-19T17:21:06.056Z,27.58
2023-05-19T17:23:35.524Z,27.20
2023-05-19T17:26:06.185Z,26.91
2023-05-19T17:28:35.097Z,26.45
2023-05-19T17:31:10.733Z,25.95
2023-05-19T17:33:41.426Z,25.51
2023-05-19T17:36:14.462Z,25.06
2023-05-19T17:38:47.722Z,24.74
2023-05-19T17:41:15.844Z,24.51
2023-05-19T17:43:44.205Z,24.22
2023-05-19T17:46:12.921Z,23.97
2023-05-19T17:48:41.699Z,23.74
2023-05-19T17:51:12.690Z,23.43
2023-05-19T17:53:41.729Z,23.21
2023-05-19T17:56:13.829Z,22.85
2023-05-19T17:58:46.622Z,22.66
2023-05-19T18:01:15.713Z,22.48
2023-05-19T18:03:50.765Z,22.32
2023-05-19T18:06:20.587Z,22.08
2023-05-19T18:08:51.285Z,21.90
2023-05-19T18:11:21.839Z,21.75
2023-05-19T18:13:52.622Z,21.58
2023-05-19T18:16:20.950Z,21.41
2023-05-19T18:18:50.430Z,21.27
2023-05-19T18:21:20.821Z,21.15
2023-05-19T18:23:52.650Z,21.00
2023-05-19T18:26:24.531Z,20.88
2023-05-19T18:28:52.706Z,20.75
2023-05-19T18:31:25.571Z,20.66
2023-05-19T18:33:53.919Z,20.52
2023-05-19T18:36:22.086Z,20.40
2023-05-19T18:38:53.195Z,20.28
2023-05-19T18:41:21.622Z,20.20
2023-05-19T18:43:51.149Z,20.05
2023-05-19T18:46:19.709Z,19.92
2023-05-19T18:48:50.125Z,19.77
2023-05-19T18:51:19.920Z,19.57
2023-05-19T18:53:50.088Z,19.46
2023-05-19T18:56:27.309Z,19.35
2023-05-19T18:58:57.157Z,19.23
2023-05-19T19:01:25.500Z,19.09
2023-05-19T19:03:54.670Z,18.99
2023-05-19T19:06:23.994Z,18.94
2023-05-19T19:08:56.179Z,18.86
2023-05-19T19:11:26.358Z,18.76
2023-05-19T19:13:58.596Z,18.68
2023-05-19T19:16:26.565Z,18.65
2023-05-19T19:18:55.523Z,18.57
2023-05-19T19:21:24.443Z,18.50
2023-05-19T19:24:03.920Z,18.44
2023-05-19T19:26:32.290Z,18.33
2023-05-19T19:29:01.626Z,18.32
2023-05-19T19:31:33.152Z,18.28
2023-05-19T19:34:08.555Z,18.20
2023-05-19T19:36:36.545Z,18.15
2023-05-19T19:39:06.811Z,18.09
2023-05-19T19:41:38.377Z,18.06
2023-05-19T19:44:08.676Z,18.02
2023-05-19T19:46:39.296Z,17.97
2023-05-19T19:49:09.534Z,17.94
2023-05-19T19:51:37.956Z,17.85
2023-05-19T19:54:05.942Z,17.83
2023-05-19T19:56:34.348Z,17.80
2023-05-19T19:59:03.409Z,17.78
2023-05-19T20:01:34.095Z,17.70
2023-05-19T20:04:03.168Z,17.61
2023-05-19T20:06:32.268Z,17.54
2023-05-19T20:09:01.025Z,17.47
2023-05-19T20:11:29.570Z,17.38
2023-05-19T20:14:00.380Z,17.31
2023-05-19T20:16:28.911Z,17.22
2023-05-19T20:19:03.075Z,17.13
2023-05-19T20:21:33.465Z,17.10
2023-05-19T20:24:02.807Z,17.03
2023-05-19T20:26:33.686Z,16.98
2023-05-19T20:29:03.125Z,16.87
2023-05-19T20:31:31.209Z,16.80
2023-05-19T20:34:01.711Z,16.74
2023-05-19T20:36:31.984Z,16.71
2023-05-19T20:39:01.245Z,16.66
2023-05-19T20:41:30.321Z,16.65
2023-05-19T20:43:58.436Z,16.59
2023-05-19T20:46:33.277Z,16.54
2023-05-19T20:49:01.706Z,16.46
2023-05-19T20:51:31.325Z,16.36
2023-05-19T20:54:00.632Z,16.35
2023-05-19T20:56:30.978Z,16.28
2023-05-19T20:58:59.871Z,16.25
2023-05-19T21:01:31.271Z,16.23
2023-05-19T21:04:00.614Z,16.17
2023-05-19T21:06:28.849Z,16.11
2023-05-19T21:08:58.382Z,16.06
2023-05-19T21:11:26.994Z,16.01
2023-05-19T21:13:56.260Z,15.99
2023-05-19T21:16:24.906Z,15.95
2023-05-19T21:18:53.886Z,15.92
2023-05-19T21:21:24.828Z,15.89
2023-05-19T21:23:53.807Z,15.85
2023-05-19T21:26:37.288Z,15.79
2023-05-19T21:29:08.677Z,15.76
2023-05-19T21:31:40.364Z,15.73
2023-05-19T21:34:19.205Z,15.65
2023-05-19T21:36:54.791Z,15.58
2023-05-19T21:39:29.842Z,15.52
2023-05-19T21:42:11.844Z,15.47
2023-05-19T21:44:40.616Z,15.41
2023-05-19T21:47:15.828Z,15.39
2023-05-19T21:49:52.948Z,15.36
2023-05-19T21:52:39.726Z,15.30
2023-05-19T21:55:15.887Z,15.26
2023-05-19T21:58:03.065Z,15.22
2023-05-19T22:00:31.494Z,15.19
2023-05-19T22:03:12.453Z,15.19
2023-05-19T22:05:43.749Z,15.17
2023-05-19T22:08:18.457Z,15.14
2023-05-19T22:10:50.666Z,15.09
2023-05-19T22:13:27.063Z,15.05
2023-05-19T22:16:04.596Z,15.01
2023-05-19T22:18:32.915Z,14.94
2023-05-19T22:21:01.248Z,14.92
2023-05-19T22:23:29.441Z,14.90
2023-05-19T22:26:00.675Z,14.87
2023-05-19T22:28:30.772Z,14.82
2023-05-19T22:31:01.249Z,14.81
2023-05-19T22:33:30.047Z,14.79
2023-05-19T22:35:59.890Z,14.76
2023-05-19T22:38:34.292Z,14.72
2023-05-19T22:41:03.446Z,14.70
2023-05-19T22:43:32.834Z,14.66
2023-05-19T22:46:01.028Z,14.62
2023-05-19T22:48:30.820Z,14.57
2023-05-19T22:51:03.473Z,14.55
2023-05-19T22:53:31.500Z,14.56
2023-05-19T22:56:00.241Z,14.56
2023-05-19T22:58:35.322Z,14.53
2023-05-19T23:01:18.900Z,14.47
2023-05-19T23:03:52.478Z,14.42
2023-05-19T23:06:24.476Z,14.37
2023-05-19T23:09:04.219Z,14.37
2023-05-19T23:11:37.344Z,14.35
2023-05-19T23:14:08.911Z,14.32
2023-05-19T23:16:55.547Z,14.32
2023-05-19T23:19:24.021Z,14.33
2023-05-19T23:21:53.842Z,14.32
2023-05-19T23:24:22.902Z,14.33
2023-05-19T23:26:55.343Z,14.34
2023-05-19T23:29:51.526Z,14.38
2023-05-19T23:32:24.488Z,14.36
2023-05-19T23:34:53.786Z,14.38
2023-05-19T23:37:24.988Z,14.40
2023-05-19T23:39:59.079Z,14.43
2023-05-19T23:42:29.761Z,14.44
2023-05-19T23:45:01.206Z,14.41
2023-05-19T23:47:34.870Z,14.42
2023-05-19T23:50:08.888Z,14.44
2023-05-19T23:52:38.530Z,14.46
2023-05-19T23:55:07.930Z,14.47
2023-05-19T23:57:38.783Z,14.46
